Terminal Aerodrome Forecast
Issued by NWS Riverton, WY

Home | Current Version | Previous Version | Text Only | Print | Product List | Glossary On
Versions: 1 2 3 4 5 6 7 8 9 10 11 12 13 14 15 16
000
FTUS45 KRIW 292322
TAFRIW
TAF
KRIW 292322Z 3000/3024 VRB06KT P6SM FEW110 SCT200
     FM300500 VRB06KT P6SM SKC
     FM302000 02011G23KT P6SM VCTS SCT090CB BKN100=

USA.gov is the U.S. government's official web portal to all federal, state and local government web resources and services.